sensor_id;sensor_type;location;lat;lon;timestamp;P1;durP1;ratioP1;P2;durP2;ratioP2
15342;SDS011;7771;48.478;8.936;2024-01-06T00:00:37;9.40;;;5.83;;
15342;SDS011;7771;48.478;8.936;2024-01-06T00:03:04;7.50;;;5.70;;
15342;SDS011;7771;48.478;8.936;2024-01-06T00:05:31;8.17;;;6.07;;
15342;SDS011;7771;48.478;8.936;2024-01-06T00:07:57;9.00;;;6.13;;
15342;SDS011;7771;48.478;8.936;2024-01-06T00:10:25;7.47;;;6.60;;
15342;SDS011;7771;48.478;8.936;2024-01-06T00:12:52;10.83;;;7.40;;
15342;SDS011;7771;48.478;8.936;2024-01-06T00:15:19;9.37;;;6.60;;
15342;SDS011;7771;48.478;8.936;2024-01-06T00:17:47;11.37;;;6.70;;
15342;SDS011;7771;48.478;8.936;2024-01-06T00:20:14;9.43;;;6.37;;
15342;SDS011;7771;48.478;8.936;2024-01-06T00:22:41;6.73;;;5.93;;
15342;SDS011;7771;48.478;8.936;2024-01-06T00:25:08;7.00;;;5.67;;
15342;SDS011;7771;48.478;8.936;2024-01-06T00:27:35;8.07;;;5.87;;
15342;SDS011;7771;48.478;8.936;2024-01-06T00:30:02;9.47;;;5.53;;
15342;SDS011;7771;48.478;8.936;2024-01-06T00:32:29;10.40;;;5.37;;
15342;SDS011;7771;48.478;8.936;2024-01-06T00:34:57;9.50;;;5.23;;
15342;SDS011;7771;48.478;8.936;2024-01-06T00:37:24;10.37;;;5.77;;
15342;SDS011;7771;48.478;8.936;2024-01-06T00:39:51;7.60;;;5.50;;
15342;SDS011;7771;48.478;8.936;2024-01-06T00:42:18;8.70;;;5.17;;
15342;SDS011;7771;48.478;8.936;2024-01-06T00:44:45;7.27;;;5.13;;
15342;SDS011;7771;48.478;8.936;2024-01-06T00:47:12;7.97;;;5.30;;
15342;SDS011;7771;48.478;8.936;2024-01-06T00:49:38;9.23;;;5.50;;
15342;SDS011;7771;48.478;8.936;2024-01-06T00:52:06;9.43;;;5.53;;
15342;SDS011;7771;48.478;8.936;2024-01-06T00:54:32;12.53;;;6.83;;
15342;SDS011;7771;48.478;8.936;2024-01-06T00:57:00;11.27;;;6.37;;
15342;SDS011;7771;48.478;8.936;2024-01-06T00:59:26;13.80;;;5.97;;
15342;SDS011;7771;48.478;8.936;2024-01-06T01:01:53;7.63;;;5.00;;
15342;SDS011;7771;48.478;8.936;2024-01-06T01:04:20;11.53;;;5.77;;
15342;SDS011;7771;48.478;8.936;2024-01-06T01:06:47;9.83;;;5.47;;
15342;SDS011;7771;48.478;8.936;2024-01-06T01:09:14;8.43;;;5.53;;
15342;SDS011;7771;48.478;8.936;2024-01-06T01:11:42;7.73;;;5.53;;
15342;SDS011;7771;48.478;8.936;2024-01-06T01:14:10;10.07;;;5.60;;
15342;SDS011;7771;48.478;8.936;2024-01-06T01:16:37;11.83;;;6.67;;
15342;SDS011;7771;48.478;8.936;2024-01-06T01:19:05;13.67;;;7.33;;
15342;SDS011;7771;48.478;8.936;2024-01-06T01:21:32;15.73;;;8.47;;
15342;SDS011;7771;48.478;8.936;2024-01-06T01:24:01;16.13;;;8.67;;
15342;SDS011;7771;48.478;8.936;2024-01-06T01:26:29;16.20;;;8.00;;
15342;SDS011;7771;48.478;8.936;2024-01-06T01:28:55;14.27;;;8.50;;
15342;SDS011;7771;48.478;8.936;2024-01-06T01:31:23;14.00;;;9.63;;
15342;SDS011;7771;48.478;8.936;2024-01-06T01:33:51;9.33;;;5.67;;
15342;SDS011;7771;48.478;8.936;2024-01-06T01:36:17;6.27;;;4.77;;
15342;SDS011;7771;48.478;8.936;2024-01-06T01:38:44;6.20;;;4.57;;
15342;SDS011;7771;48.478;8.936;2024-01-06T01:41:12;6.93;;;4.90;;
15342;SDS011;7771;48.478;8.936;2024-01-06T01:43:39;7.80;;;5.93;;
15342;SDS011;7771;48.478;8.936;2024-01-06T01:46:07;11.37;;;6.87;;
15342;SDS011;7771;48.478;8.936;2024-01-06T01:48:34;9.60;;;6.30;;
15342;SDS011;7771;48.478;8.936;2024-01-06T01:51:01;10.83;;;6.40;;
15342;SDS011;7771;48.478;8.936;2024-01-06T01:53:29;8.87;;;5.43;;
15342;SDS011;7771;48.478;8.936;2024-01-06T01:55:57;7.67;;;4.80;;
15342;SDS011;7771;48.478;8.936;2024-01-06T01:58:24;10.23;;;5.60;;
15342;SDS011;7771;48.478;8.936;2024-01-06T02:00:52;11.50;;;6.53;;
15342;SDS011;7771;48.478;8.936;2024-01-06T02:03:19;12.93;;;6.87;;
15342;SDS011;7771;48.478;8.936;2024-01-06T02:05:46;14.30;;;6.90;;
15342;SDS011;7771;48.478;8.936;2024-01-06T02:08:13;17.63;;;8.53;;
15342;SDS011;7771;48.478;8.936;2024-01-06T02:10:40;19.43;;;9.60;;
15342;SDS011;7771;48.478;8.936;2024-01-06T02:13:11;19.27;;;9.67;;
15342;SDS011;7771;48.478;8.936;2024-01-06T02:15:38;12.40;;;6.30;;
15342;SDS011;7771;48.478;8.936;2024-01-06T02:18:05;7.80;;;5.00;;
15342;SDS011;7771;48.478;8.936;2024-01-06T02:20:32;5.73;;;4.13;;
15342;SDS011;7771;48.478;8.936;2024-01-06T02:22:59;7.03;;;3.80;;
15342;SDS011;7771;48.478;8.936;2024-01-06T02:25:26;6.90;;;4.23;;
15342;SDS011;7771;48.478;8.936;2024-01-06T02:27:54;7.13;;;3.93;;
15342;SDS011;7771;48.478;8.936;2024-01-06T02:30:21;6.57;;;4.00;;
15342;SDS011;7771;48.478;8.936;2024-01-06T02:32:48;6.27;;;3.93;;
15342;SDS011;7771;48.478;8.936;2024-01-06T02:35:15;9.10;;;4.90;;
15342;SDS011;7771;48.478;8.936;2024-01-06T02:37:42;8.47;;;5.70;;
15342;SDS011;7771;48.478;8.936;2024-01-06T02:40:09;9.97;;;6.33;;
15342;SDS011;7771;48.478;8.936;2024-01-06T02:42:37;17.10;;;8.90;;
15342;SDS011;7771;48.478;8.936;2024-01-06T02:45:03;17.07;;;8.30;;
15342;SDS011;7771;48.478;8.936;2024-01-06T02:47:31;12.00;;;5.87;;
15342;SDS011;7771;48.478;8.936;2024-01-06T02:49:59;7.43;;;4.57;;
15342;SDS011;7771;48.478;8.936;2024-01-06T02:52:25;7.37;;;4.23;;
15342;SDS011;7771;48.478;8.936;2024-01-06T02:54:52;7.27;;;4.00;;
15342;SDS011;7771;48.478;8.936;2024-01-06T02:57:19;5.43;;;3.50;;
15342;SDS011;7771;48.478;8.936;2024-01-06T02:59:47;7.97;;;4.30;;
15342;SDS011;7771;48.478;8.936;2024-01-06T03:02:13;7.43;;;4.53;;
15342;SDS011;7771;48.478;8.936;2024-01-06T03:04:42;6.00;;;3.87;;
15342;SDS011;7771;48.478;8.936;2024-01-06T03:07:09;7.57;;;4.60;;
15342;SDS011;7771;48.478;8.936;2024-01-06T03:09:36;9.67;;;4.90;;
15342;SDS011;7771;48.478;8.936;2024-01-06T03:12:02;14.60;;;5.80;;
15342;SDS011;7771;48.478;8.936;2024-01-06T03:14:30;14.50;;;5.63;;
15342;SDS011;7771;48.478;8.936;2024-01-06T03:16:57;31.03;;;9.93;;
15342;SDS011;7771;48.478;8.936;2024-01-06T03:19:26;16.77;;;7.23;;
15342;SDS011;7771;48.478;8.936;2024-01-06T03:21:52;9.97;;;5.00;;
15342;SDS011;7771;48.478;8.936;2024-01-06T03:24:20;4.33;;;3.23;;
15342;SDS011;7771;48.478;8.936;2024-01-06T03:26:48;5.97;;;3.30;;
15342;SDS011;7771;48.478;8.936;2024-01-06T03:29:14;4.97;;;2.87;;
15342;SDS011;7771;48.478;8.936;2024-01-06T03:31:42;4.07;;;2.90;;
15342;SDS011;7771;48.478;8.936;2024-01-06T03:34:08;5.40;;;2.97;;
15342;SDS011;7771;48.478;8.936;2024-01-06T03:36:36;3.47;;;2.93;;
15342;SDS011;7771;48.478;8.936;2024-01-06T03:39:02;5.07;;;3.07;;
15342;SDS011;7771;48.478;8.936;2024-01-06T03:41:29;7.60;;;3.10;;
15342;SDS011;7771;48.478;8.936;2024-01-06T03:43:57;4.17;;;2.70;;
15342;SDS011;7771;48.478;8.936;2024-01-06T03:46:24;3.50;;;2.60;;
15342;SDS011;7771;48.478;8.936;2024-01-06T03:48:50;5.17;;;3.43;;
15342;SDS011;7771;48.478;8.936;2024-01-06T03:51:18;6.20;;;3.30;;
15342;SDS011;7771;48.478;8.936;2024-01-06T03:53:44;4.87;;;3.10;;
15342;SDS011;7771;48.478;8.936;2024-01-06T03:56:12;5.10;;;3.43;;
15342;SDS011;7771;48.478;8.936;2024-01-06T03:58:38;5.40;;;3.33;;
15342;SDS011;7771;48.478;8.936;2024-01-06T04:01:05;3.90;;;3.07;;
15342;SDS011;7771;48.478;8.936;2024-01-06T04:03:33;6.00;;;2.73;;
15342;SDS011;7771;48.478;8.936;2024-01-06T04:06:01;5.57;;;2.77;;
15342;SDS011;7771;48.478;8.936;2024-01-06T04:08:29;7.53;;;3.10;;
15342;SDS011;7771;48.478;8.936;2024-01-06T04:10:55;5.13;;;2.97;;
15342;SDS011;7771;48.478;8.936;2024-01-06T04:13:23;4.57;;;2.80;;
15342;SDS011;7771;48.478;8.936;2024-01-06T04:15:49;3.73;;;2.67;;
15342;SDS011;7771;48.478;8.936;2024-01-06T04:18:17;3.40;;;2.63;;
15342;SDS011;7771;48.478;8.936;2024-01-06T04:20:43;6.97;;;2.67;;
15342;SDS011;7771;48.478;8.936;2024-01-06T04:23:11;3.90;;;2.80;;
15342;SDS011;7771;48.478;8.936;2024-01-06T04:25:39;6.63;;;2.87;;
15342;SDS011;7771;48.478;8.936;2024-01-06T04:28:06;8.20;;;2.80;;
15342;SDS011;7771;48.478;8.936;2024-01-06T04:30:33;5.13;;;2.70;;
15342;SDS011;7771;48.478;8.936;2024-01-06T04:33:02;3.27;;;2.70;;
15342;SDS011;7771;48.478;8.936;2024-01-06T04:35:28;4.73;;;2.53;;
15342;SDS011;7771;48.478;8.936;2024-01-06T04:37:55;5.60;;;2.47;;
15342;SDS011;7771;48.478;8.936;2024-01-06T04:40:22;5.70;;;2.90;;
15342;SDS011;7771;48.478;8.936;2024-01-06T04:42:49;3.30;;;2.30;;
15342;SDS011;7771;48.478;8.936;2024-01-06T04:45:16;10.27;;;2.83;;
15342;SDS011;7771;48.478;8.936;2024-01-06T04:47:43;4.63;;;2.63;;
15342;SDS011;7771;48.478;8.936;2024-01-06T04:50:10;4.70;;;2.60;;
15342;SDS011;7771;48.478;8.936;2024-01-06T04:52:38;4.23;;;2.70;;
15342;SDS011;7771;48.478;8.936;2024-01-06T04:55:05;4.47;;;3.00;;
15342;SDS011;7771;48.478;8.936;2024-01-06T04:57:33;3.90;;;2.47;;
15342;SDS011;7771;48.478;8.936;2024-01-06T05:00:00;3.63;;;2.70;;
15342;SDS011;7771;48.478;8.936;2024-01-06T05:02:27;3.23;;;2.40;;
15342;SDS011;7771;48.478;8.936;2024-01-06T05:04:54;4.07;;;2.87;;
15342;SDS011;7771;48.478;8.936;2024-01-06T05:07:21;4.57;;;2.80;;
15342;SDS011;7771;48.478;8.936;2024-01-06T05:09:47;5.13;;;2.60;;
15342;SDS011;7771;48.478;8.936;2024-01-06T05:12:14;3.97;;;2.30;;
15342;SDS011;7771;48.478;8.936;2024-01-06T05:14:41;4.20;;;2.60;;
15342;SDS011;7771;48.478;8.936;2024-01-06T05:17:08;3.50;;;2.43;;
15342;SDS011;7771;48.478;8.936;2024-01-06T05:19:35;3.93;;;2.63;;
15342;SDS011;7771;48.478;8.936;2024-01-06T05:22:02;3.87;;;2.37;;
15342;SDS011;7771;48.478;8.936;2024-01-06T05:24:30;4.03;;;2.40;;
15342;SDS011;7771;48.478;8.936;2024-01-06T05:26:57;6.90;;;5.70;;
15342;SDS011;7771;48.478;8.936;2024-01-06T05:29:25;7.17;;;5.20;;
15342;SDS011;7771;48.478;8.936;2024-01-06T05:31:51;4.50;;;3.40;;
15342;SDS011;7771;48.478;8.936;2024-01-06T05:34:20;4.67;;;3.23;;
15342;SDS011;7771;48.478;8.936;2024-01-06T05:36:46;3.83;;;2.93;;
15342;SDS011;7771;48.478;8.936;2024-01-06T05:39:13;6.97;;;2.90;;
15342;SDS011;7771;48.478;8.936;2024-01-06T05:41:40;3.80;;;2.70;;
15342;SDS011;7771;48.478;8.936;2024-01-06T05:44:07;4.43;;;2.40;;
15342;SDS011;7771;48.478;8.936;2024-01-06T05:46:34;9.00;;;4.17;;
15342;SDS011;7771;48.478;8.936;2024-01-06T05:49:00;8.27;;;4.50;;
15342;SDS011;7771;48.478;8.936;2024-01-06T05:51:27;3.93;;;2.97;;
15342;SDS011;7771;48.478;8.936;2024-01-06T05:53:54;8.97;;;4.70;;
15342;SDS011;7771;48.478;8.936;2024-01-06T05:56:22;8.17;;;4.03;;
15342;SDS011;7771;48.478;8.936;2024-01-06T05:58:48;6.90;;;3.47;;
15342;SDS011;7771;48.478;8.936;2024-01-06T06:01:15;5.43;;;2.83;;
15342;SDS011;7771;48.478;8.936;2024-01-06T06:03:42;6.40;;;2.80;;
15342;SDS011;7771;48.478;8.936;2024-01-06T06:06:08;6.97;;;2.47;;
15342;SDS011;7771;48.478;8.936;2024-01-06T06:08:37;5.53;;;2.37;;
15342;SDS011;7771;48.478;8.936;2024-01-06T06:11:05;4.30;;;2.40;;
15342;SDS011;7771;48.478;8.936;2024-01-06T06:13:32;7.63;;;2.53;;
15342;SDS011;7771;48.478;8.936;2024-01-06T06:15:58;4.63;;;2.30;;
15342;SDS011;7771;48.478;8.936;2024-01-06T06:18:26;2.87;;;2.20;;
15342;SDS011;7771;48.478;8.936;2024-01-06T06:20:52;7.80;;;2.50;;
15342;SDS011;7771;48.478;8.936;2024-01-06T06:23:20;3.43;;;2.63;;
15342;SDS011;7771;48.478;8.936;2024-01-06T06:25:48;4.17;;;2.73;;
15342;SDS011;7771;48.478;8.936;2024-01-06T06:28:14;4.90;;;2.80;;
15342;SDS011;7771;48.478;8.936;2024-01-06T06:30:42;5.57;;;2.80;;
15342;SDS011;7771;48.478;8.936;2024-01-06T06:33:08;3.23;;;2.50;;
15342;SDS011;7771;48.478;8.936;2024-01-06T06:35:35;3.40;;;2.40;;
15342;SDS011;7771;48.478;8.936;2024-01-06T06:38:02;6.90;;;3.10;;
15342;SDS011;7771;48.478;8.936;2024-01-06T06:40:29;7.50;;;2.93;;
15342;SDS011;7771;48.478;8.936;2024-01-06T06:42:57;6.30;;;3.07;;
15342;SDS011;7771;48.478;8.936;2024-01-06T06:45:23;3.57;;;3.00;;
15342;SDS011;7771;48.478;8.936;2024-01-06T06:47:51;6.23;;;3.13;;
15342;SDS011;7771;48.478;8.936;2024-01-06T06:50:17;4.77;;;2.93;;
15342;SDS011;7771;48.478;8.936;2024-01-06T06:52:45;6.70;;;2.50;;
15342;SDS011;7771;48.478;8.936;2024-01-06T06:55:13;5.50;;;3.00;;
15342;SDS011;7771;48.478;8.936;2024-01-06T06:57:39;5.83;;;3.10;;
15342;SDS011;7771;48.478;8.936;2024-01-06T07:00:07;3.93;;;3.20;;
15342;SDS011;7771;48.478;8.936;2024-01-06T07:02:36;3.90;;;3.00;;
15342;SDS011;7771;48.478;8.936;2024-01-06T07:05:03;6.13;;;2.93;;
15342;SDS011;7771;48.478;8.936;2024-01-06T07:07:31;4.60;;;2.57;;
15342;SDS011;7771;48.478;8.936;2024-01-06T07:10:00;5.27;;;2.90;;
15342;SDS011;7771;48.478;8.936;2024-01-06T07:12:28;6.47;;;2.83;;
15342;SDS011;7771;48.478;8.936;2024-01-06T07:14:55;7.13;;;4.83;;
15342;SDS011;7771;48.478;8.936;2024-01-06T07:17:22;8.63;;;4.80;;
15342;SDS011;7771;48.478;8.936;2024-01-06T07:19:49;4.73;;;3.60;;
15342;SDS011;7771;48.478;8.936;2024-01-06T07:22:17;4.63;;;3.70;;
15342;SDS011;7771;48.478;8.936;2024-01-06T07:24:44;6.03;;;3.53;;
15342;SDS011;7771;48.478;8.936;2024-01-06T07:27:11;7.50;;;3.30;;
15342;SDS011;7771;48.478;8.936;2024-01-06T07:29:38;5.17;;;3.30;;
15342;SDS011;7771;48.478;8.936;2024-01-06T07:32:05;23.30;;;11.80;;
15342;SDS011;7771;48.478;8.936;2024-01-06T07:34:32;15.90;;;9.53;;
15342;SDS011;7771;48.478;8.936;2024-01-06T07:37:00;7.67;;;4.03;;
15342;SDS011;7771;48.478;8.936;2024-01-06T07:39:26;6.77;;;3.50;;
15342;SDS011;7771;48.478;8.936;2024-01-06T07:41:53;6.87;;;3.13;;
15342;SDS011;7771;48.478;8.936;2024-01-06T07:44:20;5.67;;;3.53;;
15342;SDS011;7771;48.478;8.936;2024-01-06T07:46:46;5.37;;;2.93;;
15342;SDS011;7771;48.478;8.936;2024-01-06T07:49:14;7.17;;;3.10;;
15342;SDS011;7771;48.478;8.936;2024-01-06T07:51:40;8.87;;;3.40;;
15342;SDS011;7771;48.478;8.936;2024-01-06T07:54:07;5.57;;;3.57;;
15342;SDS011;7771;48.478;8.936;2024-01-06T07:56:34;7.03;;;3.87;;
15342;SDS011;7771;48.478;8.936;2024-01-06T07:59:01;6.63;;;4.50;;
15342;SDS011;7771;48.478;8.936;2024-01-06T08:01:27;7.13;;;4.60;;
15342;SDS011;7771;48.478;8.936;2024-01-06T08:03:56;7.27;;;4.00;;
15342;SDS011;7771;48.478;8.936;2024-01-06T08:06:23;8.97;;;5.23;;
15342;SDS011;7771;48.478;8.936;2024-01-06T08:08:50;13.90;;;7.67;;
15342;SDS011;7771;48.478;8.936;2024-01-06T08:11:17;13.13;;;8.57;;
15342;SDS011;7771;48.478;8.936;2024-01-06T08:13:45;9.10;;;5.07;;
15342;SDS011;7771;48.478;8.936;2024-01-06T08:16:11;7.50;;;5.33;;
15342;SDS011;7771;48.478;8.936;2024-01-06T08:18:39;8.50;;;6.00;;
15342;SDS011;7771;48.478;8.936;2024-01-06T08:21:05;7.60;;;4.40;;
15342;SDS011;7771;48.478;8.936;2024-01-06T08:23:33;8.07;;;4.47;;
15342;SDS011;7771;48.478;8.936;2024-01-06T08:25:59;8.57;;;4.33;;
15342;SDS011;7771;48.478;8.936;2024-01-06T08:28:27;8.60;;;5.77;;
15342;SDS011;7771;48.478;8.936;2024-01-06T08:30:55;8.90;;;5.27;;
15342;SDS011;7771;48.478;8.936;2024-01-06T08:33:22;7.77;;;4.60;;
15342;SDS011;7771;48.478;8.936;2024-01-06T08:35:49;10.00;;;4.77;;
15342;SDS011;7771;48.478;8.936;2024-01-06T08:38:17;5.53;;;4.20;;
15342;SDS011;7771;48.478;8.936;2024-01-06T08:40:45;7.70;;;4.90;;
15342;SDS011;7771;48.478;8.936;2024-01-06T08:43:13;7.80;;;4.50;;
15342;SDS011;7771;48.478;8.936;2024-01-06T08:45:40;7.80;;;4.40;;
15342;SDS011;7771;48.478;8.936;2024-01-06T08:48:07;5.00;;;4.00;;
15342;SDS011;7771;48.478;8.936;2024-01-06T08:50:35;6.37;;;4.10;;
15342;SDS011;7771;48.478;8.936;2024-01-06T08:53:02;5.53;;;3.73;;
15342;SDS011;7771;48.478;8.936;2024-01-06T08:55:30;6.40;;;3.37;;
15342;SDS011;7771;48.478;8.936;2024-01-06T08:57:56;7.13;;;3.63;;
15342;SDS011;7771;48.478;8.936;2024-01-06T09:00:23;6.27;;;3.63;;
15342;SDS011;7771;48.478;8.936;2024-01-06T09:02:51;4.23;;;3.30;;
15342;SDS011;7771;48.478;8.936;2024-01-06T09:05:18;9.10;;;4.80;;
15342;SDS011;7771;48.478;8.936;2024-01-06T09:07:46;9.90;;;4.47;;
15342;SDS011;7771;48.478;8.936;2024-01-06T09:10:13;6.40;;;2.77;;
15342;SDS011;7771;48.478;8.936;2024-01-06T09:12:39;6.47;;;2.97;;
15342;SDS011;7771;48.478;8.936;2024-01-06T09:15:06;4.60;;;3.17;;
15342;SDS011;7771;48.478;8.936;2024-01-06T09:17:34;5.53;;;2.73;;
15342;SDS011;7771;48.478;8.936;2024-01-06T09:20:01;5.20;;;2.57;;
15342;SDS011;7771;48.478;8.936;2024-01-06T09:22:28;4.37;;;2.93;;
15342;SDS011;7771;48.478;8.936;2024-01-06T09:24:55;5.37;;;2.97;;
15342;SDS011;7771;48.478;8.936;2024-01-06T09:27:21;4.00;;;2.33;;
15342;SDS011;7771;48.478;8.936;2024-01-06T09:29:50;5.20;;;2.73;;
15342;SDS011;7771;48.478;8.936;2024-01-06T09:32:17;4.57;;;2.40;;
15342;SDS011;7771;48.478;8.936;2024-01-06T09:34:44;5.10;;;2.50;;
15342;SDS011;7771;48.478;8.936;2024-01-06T09:37:12;5.50;;;2.73;;
15342;SDS011;7771;48.478;8.936;2024-01-06T09:39:39;4.00;;;2.60;;
15342;SDS011;7771;48.478;8.936;2024-01-06T09:42:06;5.43;;;3.00;;
15342;SDS011;7771;48.478;8.936;2024-01-06T09:44:33;5.97;;;2.53;;
15342;SDS011;7771;48.478;8.936;2024-01-06T09:46:59;8.43;;;3.63;;
15342;SDS011;7771;48.478;8.936;2024-01-06T09:49:27;5.33;;;3.13;;
15342;SDS011;7771;48.478;8.936;2024-01-06T09:51:57;7.40;;;3.90;;
15342;SDS011;7771;48.478;8.936;2024-01-06T09:54:22;7.50;;;4.47;;
15342;SDS011;7771;48.478;8.936;2024-01-06T09:56:50;5.70;;;3.10;;
15342;SDS011;7771;48.478;8.936;2024-01-06T09:59:18;5.93;;;2.97;;
15342;SDS011;7771;48.478;8.936;2024-01-06T10:01:44;8.93;;;2.80;;
15342;SDS011;7771;48.478;8.936;2024-01-06T10:04:11;4.13;;;2.63;;
15342;SDS011;7771;48.478;8.936;2024-01-06T10:06:38;7.57;;;3.10;;
15342;SDS011;7771;48.478;8.936;2024-01-06T10:09:05;6.57;;;2.70;;
15342;SDS011;7771;48.478;8.936;2024-01-06T10:11:32;5.33;;;2.83;;
15342;SDS011;7771;48.478;8.936;2024-01-06T10:13:59;6.83;;;2.53;;
15342;SDS011;7771;48.478;8.936;2024-01-06T10:16:26;5.50;;;2.93;;
15342;SDS011;7771;48.478;8.936;2024-01-06T10:18:53;11.53;;;5.60;;
15342;SDS011;7771;48.478;8.936;2024-01-06T10:21:21;9.30;;;4.10;;
15342;SDS011;7771;48.478;8.936;2024-01-06T10:23:48;10.50;;;4.33;;
15342;SDS011;7771;48.478;8.936;2024-01-06T10:26:14;9.27;;;4.97;;
15342;SDS011;7771;48.478;8.936;2024-01-06T10:28:42;6.63;;;3.33;;
15342;SDS011;7771;48.478;8.936;2024-01-06T10:31:10;8.90;;;3.87;;
15342;SDS011;7771;48.478;8.936;2024-01-06T10:33:38;5.67;;;2.40;;
15342;SDS011;7771;48.478;8.936;2024-01-06T10:36:05;6.23;;;3.00;;
15342;SDS011;7771;48.478;8.936;2024-01-06T10:38:33;4.30;;;2.40;;
15342;SDS011;7771;48.478;8.936;2024-01-06T10:41:00;5.17;;;2.17;;
15342;SDS011;7771;48.478;8.936;2024-01-06T10:43:28;4.37;;;2.53;;
15342;SDS011;7771;48.478;8.936;2024-01-06T10:45:56;4.63;;;1.80;;
15342;SDS011;7771;48.478;8.936;2024-01-06T10:48:23;4.57;;;2.30;;
15342;SDS011;7771;48.478;8.936;2024-01-06T10:50:53;4.10;;;1.80;;
15342;SDS011;7771;48.478;8.936;2024-01-06T10:53:21;5.30;;;2.73;;
15342;SDS011;7771;48.478;8.936;2024-01-06T10:55:49;5.17;;;2.50;;
15342;SDS011;7771;48.478;8.936;2024-01-06T10:58:17;4.53;;;2.50;;
15342;SDS011;7771;48.478;8.936;2024-01-06T11:00:45;5.77;;;2.37;;
15342;SDS011;7771;48.478;8.936;2024-01-06T11:03:12;3.63;;;2.30;;
15342;SDS011;7771;48.478;8.936;2024-01-06T11:05:40;3.67;;;2.47;;
15342;SDS011;7771;48.478;8.936;2024-01-06T11:08:07;3.47;;;2.00;;
15342;SDS011;7771;48.478;8.936;2024-01-06T11:10:36;3.73;;;1.93;;
15342;SDS011;7771;48.478;8.936;2024-01-06T11:13:06;2.93;;;2.00;;
15342;SDS011;7771;48.478;8.936;2024-01-06T11:15:43;2.77;;;1.97;;
15342;SDS011;7771;48.478;8.936;2024-01-06T11:18:29;2.87;;;1.93;;
15342;SDS011;7771;48.478;8.936;2024-01-06T11:20:38;4.47;;;2.67;;
15342;SDS011;7771;48.478;8.936;2024-01-06T11:25:43;3.10;;;2.10;;
15342;SDS011;7771;48.478;8.936;2024-01-06T11:28:09;3.27;;;1.80;;
15342;SDS011;7771;48.478;8.936;2024-01-06T11:30:38;1.57;;;1.47;;
15342;SDS011;7771;48.478;8.936;2024-01-06T11:33:06;2.63;;;1.50;;
15342;SDS011;7771;48.478;8.936;2024-01-06T11:35:33;3.00;;;2.03;;
15342;SDS011;7771;48.478;8.936;2024-01-06T11:38:00;2.17;;;1.93;;
15342;SDS011;7771;48.478;8.936;2024-01-06T11:40:31;2.50;;;1.70;;
15342;SDS011;7771;48.478;8.936;2024-01-06T11:43:02;1.90;;;1.53;;
15342;SDS011;7771;48.478;8.936;2024-01-06T11:45:28;4.00;;;1.60;;
15342;SDS011;7771;48.478;8.936;2024-01-06T11:47:57;3.13;;;1.90;;
15342;SDS011;7771;48.478;8.936;2024-01-06T11:50:25;5.33;;;2.80;;
15342;SDS011;7771;48.478;8.936;2024-01-06T11:52:52;3.63;;;2.40;;
15342;SDS011;7771;48.478;8.936;2024-01-06T11:55:20;4.57;;;2.17;;
15342;SDS011;7771;48.478;8.936;2024-01-06T11:57:48;4.37;;;2.47;;
15342;SDS011;7771;48.478;8.936;2024-01-06T12:00:16;3.63;;;2.00;;
15342;SDS011;7771;48.478;8.936;2024-01-06T12:02:43;4.10;;;1.73;;
15342;SDS011;7771;48.478;8.936;2024-01-06T12:05:13;3.00;;;1.70;;
15342;SDS011;7771;48.478;8.936;2024-01-06T12:07:40;2.70;;;1.90;;
15342;SDS011;7771;48.478;8.936;2024-01-06T12:10:06;2.53;;;2.03;;
15342;SDS011;7771;48.478;8.936;2024-01-06T12:12:34;2.27;;;1.40;;
15342;SDS011;7771;48.478;8.936;2024-01-06T12:15:04;2.37;;;1.97;;
15342;SDS011;7771;48.478;8.936;2024-01-06T12:17:33;3.90;;;1.70;;
15342;SDS011;7771;48.478;8.936;2024-01-06T12:19:59;2.03;;;1.43;;
15342;SDS011;7771;48.478;8.936;2024-01-06T12:22:27;1.83;;;1.20;;
15342;SDS011;7771;48.478;8.936;2024-01-06T12:24:55;2.63;;;1.10;;
15342;SDS011;7771;48.478;8.936;2024-01-06T12:27:24;1.90;;;1.17;;
15342;SDS011;7771;48.478;8.936;2024-01-06T12:29:49;3.60;;;1.40;;
15342;SDS011;7771;48.478;8.936;2024-01-06T12:32:18;2.30;;;1.70;;
15342;SDS011;7771;48.478;8.936;2024-01-06T12:34:45;2.33;;;1.40;;
15342;SDS011;7771;48.478;8.936;2024-01-06T12:37:12;3.23;;;1.90;;
15342;SDS011;7771;48.478;8.936;2024-01-06T12:39:40;1.90;;;1.70;;
15342;SDS011;7771;48.478;8.936;2024-01-06T12:42:06;1.83;;;1.50;;
15342;SDS011;7771;48.478;8.936;2024-01-06T12:44:33;1.70;;;1.60;;
15342;SDS011;7771;48.478;8.936;2024-01-06T12:47:01;4.97;;;1.77;;
15342;SDS011;7771;48.478;8.936;2024-01-06T12:49:28;3.27;;;1.90;;
15342;SDS011;7771;48.478;8.936;2024-01-06T12:51:55;2.37;;;1.80;;
15342;SDS011;7771;48.478;8.936;2024-01-06T12:54:22;1.60;;;1.37;;
15342;SDS011;7771;48.478;8.936;2024-01-06T12:56:49;3.00;;;1.30;;
15342;SDS011;7771;48.478;8.936;2024-01-06T12:59:16;1.50;;;1.30;;
15342;SDS011;7771;48.478;8.936;2024-01-06T13:01:43;1.83;;;1.40;;
15342;SDS011;7771;48.478;8.936;2024-01-06T13:04:14;1.67;;;1.37;;
15342;SDS011;7771;48.478;8.936;2024-01-06T13:06:40;1.20;;;1.10;;
15342;SDS011;7771;48.478;8.936;2024-01-06T13:09:07;1.50;;;1.20;;
15342;SDS011;7771;48.478;8.936;2024-01-06T13:11:35;1.53;;;1.40;;
15342;SDS011;7771;48.478;8.936;2024-01-06T13:14:02;1.20;;;1.10;;
15342;SDS011;7771;48.478;8.936;2024-01-06T13:16:29;1.37;;;1.20;;
15342;SDS011;7771;48.478;8.936;2024-01-06T13:18:56;8.50;;;4.30;;
15342;SDS011;7771;48.478;8.936;2024-01-06T13:21:22;30.87;;;17.03;;
15342;SDS011;7771;48.478;8.936;2024-01-06T13:23:51;3.10;;;2.10;;
15342;SDS011;7771;48.478;8.936;2024-01-06T13:26:18;2.27;;;1.73;;
15342;SDS011;7771;48.478;8.936;2024-01-06T13:28:45;2.43;;;2.23;;
15342;SDS011;7771;48.478;8.936;2024-01-06T13:31:13;2.50;;;1.80;;
15342;SDS011;7771;48.478;8.936;2024-01-06T13:33:40;2.10;;;1.30;;
15342;SDS011;7771;48.478;8.936;2024-01-06T13:36:09;1.40;;;1.30;;
15342;SDS011;7771;48.478;8.936;2024-01-06T13:38:35;2.10;;;1.60;;
15342;SDS011;7771;48.478;8.936;2024-01-06T13:41:03;1.93;;;1.43;;
15342;SDS011;7771;48.478;8.936;2024-01-06T13:43:30;1.43;;;1.20;;
15342;SDS011;7771;48.478;8.936;2024-01-06T13:45:58;2.90;;;1.10;;
15342;SDS011;7771;48.478;8.936;2024-01-06T13:48:26;0.93;;;0.93;;
15342;SDS011;7771;48.478;8.936;2024-01-06T13:50:55;1.67;;;1.47;;
15342;SDS011;7771;48.478;8.936;2024-01-06T13:53:23;1.87;;;1.07;;
15342;SDS011;7771;48.478;8.936;2024-01-06T13:55:51;1.37;;;1.27;;
15342;SDS011;7771;48.478;8.936;2024-01-06T13:58:19;1.43;;;1.33;;
15342;SDS011;7771;48.478;8.936;2024-01-06T14:00:45;1.20;;;1.10;;
15342;SDS011;7771;48.478;8.936;2024-01-06T14:03:14;1.33;;;1.23;;
15342;SDS011;7771;48.478;8.936;2024-01-06T14:05:41;1.30;;;1.20;;
15342;SDS011;7771;48.478;8.936;2024-01-06T14:08:09;1.93;;;1.30;;
15342;SDS011;7771;48.478;8.936;2024-01-06T14:10:38;1.20;;;0.97;;
15342;SDS011;7771;48.478;8.936;2024-01-06T14:13:04;0.83;;;0.80;;
15342;SDS011;7771;48.478;8.936;2024-01-06T14:15:33;1.30;;;1.00;;
15342;SDS011;7771;48.478;8.936;2024-01-06T14:17:59;1.30;;;1.00;;
15342;SDS011;7771;48.478;8.936;2024-01-06T14:20:28;1.20;;;1.10;;
15342;SDS011;7771;48.478;8.936;2024-01-06T14:22:56;2.13;;;1.77;;
15342;SDS011;7771;48.478;8.936;2024-01-06T14:25:23;2.83;;;2.30;;
15342;SDS011;7771;48.478;8.936;2024-01-06T14:27:50;3.00;;;2.30;;
15342;SDS011;7771;48.478;8.936;2024-01-06T14:30:18;4.10;;;2.63;;
15342;SDS011;7771;48.478;8.936;2024-01-06T14:32:44;2.77;;;2.20;;
15342;SDS011;7771;48.478;8.936;2024-01-06T14:35:13;4.10;;;2.77;;
15342;SDS011;7771;48.478;8.936;2024-01-06T14:37:40;4.53;;;3.73;;
15342;SDS011;7771;48.478;8.936;2024-01-06T14:40:08;3.90;;;2.90;;
15342;SDS011;7771;48.478;8.936;2024-01-06T14:42:36;4.27;;;3.00;;
15342;SDS011;7771;48.478;8.936;2024-01-06T14:45:02;2.40;;;2.20;;
15342;SDS011;7771;48.478;8.936;2024-01-06T14:47:30;3.07;;;2.83;;
15342;SDS011;7771;48.478;8.936;2024-01-06T14:50:07;2.50;;;2.20;;
15342;SDS011;7771;48.478;8.936;2024-01-06T14:52:46;2.43;;;2.07;;
15342;SDS011;7771;48.478;8.936;2024-01-06T14:55:14;1.70;;;1.60;;
15342;SDS011;7771;48.478;8.936;2024-01-06T14:57:41;2.07;;;1.87;;
15342;SDS011;7771;48.478;8.936;2024-01-06T15:00:08;1.53;;;1.30;;
15342;SDS011;7771;48.478;8.936;2024-01-06T15:02:38;4.47;;;4.00;;